createdAt,value
2018-12-19T00:02:20.668Z,3.40
2018-12-19T00:04:48.724Z,3.40
2018-12-19T00:07:16.840Z,3.30
2018-12-19T00:09:44.913Z,3.30
2018-12-19T00:12:13.032Z,3.30
2018-12-19T00:14:41.081Z,3.30
2018-12-19T00:17:09.216Z,3.30
2018-12-19T00:19:37.325Z,3.30
2018-12-19T00:22:05.457Z,3.20
2018-12-19T00:24:33.572Z,3.20
2018-12-19T00:27:01.648Z,3.30
2018-12-19T00:29:29.737Z,3.20
2018-12-19T00:31:57.795Z,3.20
2018-12-19T00:34:25.913Z,3.20
2018-12-19T00:36:54.053Z,3.20
2018-12-19T00:39:22.264Z,3.20
2018-12-19T00:41:50.380Z,3.20
2018-12-19T00:44:18.518Z,3.20
2018-12-19T00:46:46.748Z,3.20
2018-12-19T00:49:14.856Z,3.20
2018-12-19T00:51:43.057Z,3.20
2018-12-19T00:54:11.288Z,3.20
2018-12-19T00:56:39.324Z,3.20
2018-12-19T00:59:07.488Z,3.20
2018-12-19T01:01:35.657Z,3.20
2018-12-19T01:04:03.820Z,3.20
2018-12-19T01:06:32.021Z,3.30
2018-12-19T01:09:00.183Z,3.30
2018-12-19T01:11:28.246Z,3.30
2018-12-19T01:13:56.289Z,3.30
2018-12-19T01:16:24.433Z,3.30
2018-12-19T01:18:52.489Z,3.30
2018-12-19T01:21:21.596Z,3.30
2018-12-19T01:23:49.699Z,3.30
2018-12-19T01:26:17.756Z,3.30
2018-12-19T01:28:45.807Z,3.30
2018-12-19T01:31:14.017Z,3.20
2018-12-19T01:33:42.076Z,3.30
2018-12-19T01:36:10.136Z,3.20
2018-12-19T01:38:38.265Z,3.20
2018-12-19T01:41:06.312Z,3.30
2018-12-19T01:43:34.483Z,3.20
2018-12-19T01:46:02.612Z,3.20
2018-12-19T01:48:30.718Z,3.20
2018-12-19T01:50:58.865Z,3.20
2018-12-19T01:53:26.922Z,3.20
2018-12-19T01:55:55.068Z,3.30
2018-12-19T01:58:23.253Z,3.30
2018-12-19T02:00:51.375Z,3.30
2018-12-19T02:03:19.481Z,3.30
2018-12-19T02:05:47.661Z,3.30
2018-12-19T02:08:15.769Z,3.30
2018-12-19T02:10:47.900Z,3.40
2018-12-19T02:13:24.899Z,3.40
2018-12-19T02:16:09.225Z,3.30
2018-12-19T02:18:54.712Z,3.40
2018-12-19T02:21:35.596Z,3.40
2018-12-19T02:24:08.732Z,3.30
2018-12-19T02:26:39.624Z,3.30
2018-12-19T02:29:13.971Z,3.30
2018-12-19T02:31:50.758Z,3.30
2018-12-19T02:34:29.456Z,3.30
2018-12-19T02:40:02.093Z,3.30
2018-12-19T02:42:30.328Z,3.40
2018-12-19T02:44:58.436Z,3.30
2018-12-19T02:47:26.635Z,3.40
2018-12-19T02:49:54.815Z,3.40
2018-12-19T02:52:22.895Z,3.40
2018-12-19T02:54:51.116Z,3.40
2018-12-19T02:57:19.212Z,3.50
2018-12-19T02:59:47.280Z,3.50
2018-12-19T03:02:15.344Z,3.50
2018-12-19T03:04:43.495Z,3.60
2018-12-19T03:07:11.702Z,3.60
2018-12-19T03:09:42.988Z,3.60
2018-12-19T03:12:09.828Z,3.70
2018-12-19T03:14:38.035Z,3.70
2018-12-19T03:17:06.118Z,3.70
2018-12-19T03:19:34.214Z,3.70
2018-12-19T03:22:02.426Z,3.70
2018-12-19T03:24:30.544Z,3.70
2018-12-19T03:26:58.626Z,3.80
2018-12-19T03:29:26.764Z,3.70
2018-12-19T03:31:54.954Z,3.70
2018-12-19T03:34:23.084Z,3.70
2018-12-19T03:36:51.140Z,3.80
2018-12-19T03:39:19.288Z,3.80
2018-12-19T03:41:47.427Z,3.80
2018-12-19T03:44:15.482Z,3.90
2018-12-19T03:46:43.625Z,3.90
2018-12-19T03:49:11.737Z,3.90
2018-12-19T03:51:40.539Z,3.90
2018-12-19T03:54:08.732Z,3.90
2018-12-19T03:56:36.870Z,4.00
2018-12-19T03:59:05.076Z,4.00
2018-12-19T04:01:33.224Z,4.00
2018-12-19T04:04:01.281Z,4.10
2018-12-19T04:06:29.438Z,4.10
2018-12-19T04:08:57.566Z,4.10
2018-12-19T04:11:25.708Z,4.10
2018-12-19T04:13:53.789Z,4.20
2018-12-19T04:16:21.881Z,4.20
2018-12-19T04:18:50.060Z,4.20
2018-12-19T04:21:18.285Z,4.10
2018-12-19T04:23:46.358Z,4.20
2018-12-19T04:26:14.482Z,4.20
2018-12-19T04:28:42.598Z,4.20
2018-12-19T04:31:10.738Z,4.20
2018-12-19T04:33:38.873Z,4.20
2018-12-19T04:36:07.070Z,4.20
2018-12-19T04:38:35.460Z,4.30
2018-12-19T04:41:03.659Z,4.30
2018-12-19T04:43:31.723Z,4.30
2018-12-19T04:45:59.796Z,4.40
2018-12-19T04:48:27.875Z,4.30
2018-12-19T04:50:55.924Z,4.30
2018-12-19T04:53:24.125Z,4.40
2018-12-19T04:55:52.197Z,4.40
2018-12-19T04:58:20.244Z,4.40
2018-12-19T05:00:48.397Z,4.40
2018-12-19T05:03:16.440Z,4.40
2018-12-19T05:05:44.642Z,4.50
2018-12-19T05:08:12.765Z,4.60
2018-12-19T05:10:40.900Z,4.60
2018-12-19T05:13:09.022Z,4.60
2018-12-19T05:15:37.062Z,4.60
2018-12-19T05:18:05.206Z,4.60
2018-12-19T05:20:33.393Z,4.70
2018-12-19T05:23:01.454Z,4.70
2018-12-19T05:25:29.582Z,4.70
2018-12-19T05:27:57.704Z,4.60
2018-12-19T05:30:25.913Z,4.60
2018-12-19T05:32:54.000Z,4.50
2018-12-19T05:35:22.067Z,4.40
2018-12-19T05:37:50.225Z,4.30
2018-12-19T05:40:19.052Z,4.20
2018-12-19T05:42:47.303Z,4.10
2018-12-19T05:45:15.394Z,4.00
2018-12-19T05:47:43.509Z,3.90
2018-12-19T05:50:11.950Z,3.80
2018-12-19T05:52:40.181Z,3.80
2018-12-19T05:55:08.400Z,3.80
2018-12-19T05:57:36.517Z,3.80
2018-12-19T06:00:06.545Z,3.80
2018-12-19T06:02:34.815Z,3.80
2018-12-19T06:05:03.168Z,3.80
2018-12-19T06:07:31.287Z,3.80
2018-12-19T06:09:59.428Z,3.80
2018-12-19T06:12:27.789Z,3.80
2018-12-19T06:14:55.905Z,3.80
2018-12-19T06:17:24.124Z,3.80
2018-12-19T06:19:52.209Z,3.70
2018-12-19T06:22:20.422Z,3.70
2018-12-19T06:24:48.501Z,3.70
2018-12-19T06:27:16.548Z,3.60
2018-12-19T06:29:44.677Z,3.70
2018-12-19T06:32:12.810Z,3.70
2018-12-19T06:34:40.880Z,3.60
2018-12-19T06:37:09.176Z,3.60
2018-12-19T06:39:37.256Z,3.70
2018-12-19T06:42:05.439Z,3.70
2018-12-19T06:44:33.612Z,3.70
2018-12-19T06:47:01.760Z,3.70
2018-12-19T06:49:29.889Z,3.70
2018-12-19T06:51:58.060Z,3.70
2018-12-19T06:54:26.212Z,3.70
2018-12-19T06:56:54.334Z,3.70
2018-12-19T06:59:22.496Z,3.70
2018-12-19T07:01:50.620Z,3.60
2018-12-19T07:04:18.697Z,3.60
2018-12-19T07:06:46.819Z,3.60
2018-12-19T07:09:14.979Z,3.60
2018-12-19T07:11:43.120Z,3.60
2018-12-19T07:14:11.252Z,3.60
2018-12-19T07:16:43.418Z,3.60
2018-12-19T07:19:09.544Z,3.60
2018-12-19T07:21:37.633Z,3.70
2018-12-19T07:24:05.854Z,3.70
2018-12-19T07:26:33.986Z,3.70
2018-12-19T07:29:02.153Z,3.70
2018-12-19T07:31:30.240Z,3.70
2018-12-19T07:33:58.456Z,3.70
2018-12-19T07:36:26.576Z,3.80
2018-12-19T07:38:54.749Z,3.80
2018-12-19T07:41:22.864Z,3.90
2018-12-19T07:43:50.957Z,3.90
2018-12-19T07:46:19.885Z,3.90
2018-12-19T07:48:48.368Z,3.90
2018-12-19T07:51:16.587Z,4.00
2018-12-19T07:53:44.761Z,4.00
2018-12-19T07:56:13.772Z,4.00
2018-12-19T07:58:41.887Z,4.10
2018-12-19T08:01:10.032Z,4.10
2018-12-19T08:03:38.216Z,4.10
2018-12-19T08:06:06.457Z,4.20
2018-12-19T08:08:34.621Z,4.20
2018-12-19T08:11:02.790Z,4.30
2018-12-19T08:13:30.968Z,4.30
2018-12-19T08:15:59.029Z,4.40
2018-12-19T08:18:27.113Z,4.40
2018-12-19T08:20:55.369Z,4.40
2018-12-19T08:23:23.487Z,4.40
2018-12-19T08:25:51.690Z,4.40
2018-12-19T08:28:19.862Z,4.40
2018-12-19T08:30:48.727Z,4.50
2018-12-19T08:33:16.936Z,4.50
2018-12-19T08:35:45.025Z,4.50
2018-12-19T08:38:13.185Z,4.50
2018-12-19T08:40:41.292Z,4.50
2018-12-19T08:43:09.420Z,4.60
2018-12-19T08:45:37.570Z,4.60
2018-12-19T08:48:05.692Z,4.60
2018-12-19T08:50:33.932Z,4.70
2018-12-19T08:53:02.085Z,4.70
2018-12-19T08:55:30.193Z,4.70
2018-12-19T08:57:58.337Z,4.70
2018-12-19T09:00:26.487Z,4.70
2018-12-19T09:02:54.592Z,4.70
2018-12-19T09:05:22.689Z,4.70
2018-12-19T09:07:50.879Z,4.70
2018-12-19T09:10:19.160Z,4.70
2018-12-19T09:12:47.293Z,4.70
2018-12-19T09:15:19.707Z,4.70
2018-12-19T09:17:47.818Z,4.70
2018-12-19T09:20:16.466Z,4.70
2018-12-19T09:22:44.568Z,4.70
2018-12-19T09:25:12.789Z,4.80
2018-12-19T09:27:40.913Z,4.80
2018-12-19T09:30:09.121Z,4.80
2018-12-19T09:32:37.207Z,4.90
2018-12-19T09:35:05.495Z,4.90
2018-12-19T09:37:33.603Z,4.90
2018-12-19T09:40:01.860Z,4.90
2018-12-19T09:42:30.063Z,4.90
2018-12-19T09:44:58.125Z,5.00
2018-12-19T09:47:26.257Z,5.00
2018-12-19T09:49:54.340Z,5.00
2018-12-19T09:52:22.482Z,5.00
2018-12-19T09:54:50.603Z,5.10
2018-12-19T09:57:19.624Z,5.20
2018-12-19T09:59:47.705Z,5.20
2018-12-19T10:02:16.284Z,5.20
2018-12-19T10:04:44.426Z,5.30
2018-12-19T10:07:12.477Z,5.40
2018-12-19T10:09:40.540Z,5.40
2018-12-19T10:12:08.668Z,5.50
2018-12-19T10:14:36.897Z,5.50
2018-12-19T10:17:04.961Z,5.60
2018-12-19T10:19:33.099Z,5.60
2018-12-19T10:22:01.231Z,5.60
2018-12-19T10:24:34.834Z,5.60
2018-12-19T10:27:02.893Z,5.60
2018-12-19T10:29:30.968Z,5.60
2018-12-19T10:31:59.047Z,5.60
2018-12-19T10:34:27.095Z,5.60
2018-12-19T10:36:55.229Z,5.60
2018-12-19T10:39:23.376Z,5.70
2018-12-19T10:41:51.626Z,5.70
2018-12-19T10:44:21.740Z,5.70
2018-12-19T10:46:49.869Z,5.80
2018-12-19T10:49:17.935Z,5.80
2018-12-19T10:51:46.000Z,5.90
2018-12-19T10:54:14.057Z,6.00
2018-12-19T10:56:42.264Z,6.00
2018-12-19T10:59:10.312Z,6.10
2018-12-19T11:01:38.372Z,6.20
2018-12-19T11:04:06.488Z,6.20
2018-12-19T11:06:34.559Z,6.30
2018-12-19T11:09:02.768Z,6.40
2018-12-19T11:11:32.484Z,6.50
2018-12-19T11:14:00.689Z,6.60
2018-12-19T11:16:28.924Z,6.70
2018-12-19T11:18:56.969Z,6.80
2018-12-19T11:21:25.140Z,6.80
2018-12-19T11:23:53.339Z,6.90
2018-12-19T11:26:21.392Z,7.00
2018-12-19T11:28:49.533Z,7.00
2018-12-19T11:31:17.642Z,7.10
2018-12-19T11:33:45.943Z,7.10
2018-12-19T11:36:14.094Z,7.20
2018-12-19T11:38:42.301Z,7.20
2018-12-19T11:41:10.444Z,7.20
2018-12-19T11:43:38.580Z,7.30
2018-12-19T11:46:06.776Z,7.30
2018-12-19T11:48:34.843Z,7.20
2018-12-19T11:51:02.999Z,7.30
2018-12-19T11:53:31.077Z,7.40
2018-12-19T11:55:59.244Z,7.40
2018-12-19T11:58:27.297Z,7.40
2018-12-19T12:00:55.464Z,7.40
2018-12-19T12:03:23.542Z,7.50
2018-12-19T12:05:51.743Z,7.50
2018-12-19T12:08:19.873Z,7.50
2018-12-19T12:10:48.001Z,7.50
2018-12-19T12:13:16.137Z,7.50
2018-12-19T12:15:44.428Z,7.60
2018-12-19T12:18:12.478Z,7.60
2018-12-19T12:20:41.597Z,7.60
2018-12-19T12:23:09.737Z,7.60
2018-12-19T12:25:37.899Z,7.60
2018-12-19T12:28:05.968Z,7.60
2018-12-19T12:30:34.039Z,7.70
2018-12-19T12:33:02.156Z,7.70
2018-12-19T12:35:30.224Z,7.80
2018-12-19T12:37:58.373Z,7.80
2018-12-19T12:40:26.464Z,7.80
2018-12-19T12:42:54.566Z,7.90
2018-12-19T12:45:22.709Z,8.10
2018-12-19T12:47:50.855Z,8.20
2018-12-19T12:50:19.024Z,8.40
2018-12-19T12:52:47.189Z,8.80
2018-12-19T12:55:15.236Z,9.30
2018-12-19T12:57:43.285Z,10.10
2018-12-19T13:00:11.477Z,11.00
2018-12-19T13:02:39.659Z,12.00
2018-12-19T13:05:07.873Z,12.90
2018-12-19T13:07:35.937Z,13.40
2018-12-19T13:10:05.251Z,13.40
2018-12-19T13:12:33.497Z,13.20
2018-12-19T13:15:01.698Z,12.90
2018-12-19T13:17:29.755Z,12.60
2018-12-19T13:19:57.827Z,12.20
2018-12-19T13:22:25.909Z,11.50
2018-12-19T13:24:54.147Z,11.00
2018-12-19T13:27:22.293Z,10.70
2018-12-19T13:29:50.418Z,10.10
2018-12-19T13:32:18.806Z,9.80
2018-12-19T13:34:46.959Z,9.40
2018-12-19T13:37:15.116Z,9.20
2018-12-19T13:39:43.193Z,8.90
2018-12-19T13:42:11.327Z,8.70
2018-12-19T13:44:39.399Z,8.50
2018-12-19T13:47:07.463Z,8.40
2018-12-19T13:49:35.522Z,8.30
2018-12-19T13:52:03.696Z,8.20
2018-12-19T13:54:31.764Z,8.20
2018-12-19T13:56:59.866Z,8.20
2018-12-19T13:59:28.536Z,8.10
2018-12-19T14:01:56.600Z,8.10
2018-12-19T14:04:24.905Z,8.00
2018-12-19T14:06:53.049Z,7.90
2018-12-19T14:09:21.258Z,7.70
2018-12-19T14:11:49.305Z,7.70
2018-12-19T14:14:17.436Z,7.70
2018-12-19T14:16:45.616Z,7.80
2018-12-19T14:19:13.748Z,7.70
2018-12-19T14:21:41.872Z,7.70
2018-12-19T14:24:10.075Z,7.70
2018-12-19T14:26:38.207Z,7.60
2018-12-19T14:29:07.049Z,7.50
2018-12-19T14:31:35.165Z,7.60
2018-12-19T14:34:03.346Z,7.50
2018-12-19T14:36:31.536Z,7.50
2018-12-19T14:38:59.669Z,7.50
2018-12-19T14:41:27.868Z,7.40
2018-12-19T14:43:56.093Z,7.30
2018-12-19T14:46:24.212Z,7.30
2018-12-19T14:48:52.311Z,7.40
2018-12-19T14:51:20.770Z,7.30
2018-12-19T14:53:48.855Z,7.30
2018-12-19T14:56:17.049Z,7.30
2018-12-19T14:58:45.112Z,7.20
2018-12-19T15:01:13.296Z,7.20
2018-12-19T15:03:41.368Z,7.10
2018-12-19T15:06:09.557Z,7.00
2018-12-19T15:08:37.771Z,7.00
2018-12-19T15:11:05.903Z,7.00
2018-12-19T15:13:34.008Z,6.90
2018-12-19T15:16:02.781Z,6.80
2018-12-19T15:18:31.205Z,6.70
2018-12-19T15:20:59.340Z,6.60
2018-12-19T15:23:27.434Z,6.50
2018-12-19T15:25:55.595Z,6.50
2018-12-19T15:28:23.748Z,6.30
2018-12-19T15:30:51.863Z,6.30
2018-12-19T15:33:19.960Z,6.20
2018-12-19T15:35:48.086Z,6.10
2018-12-19T15:38:16.325Z,6.00
2018-12-19T15:40:44.442Z,5.90
2018-12-19T15:43:12.648Z,5.90
2018-12-19T15:45:40.872Z,5.80
2018-12-19T15:48:08.987Z,5.80
2018-12-19T15:50:37.191Z,5.80
2018-12-19T15:53:05.324Z,5.80
2018-12-19T15:55:33.452Z,5.80
2018-12-19T15:58:01.597Z,5.70
2018-12-19T16:00:29.720Z,5.70
2018-12-19T16:02:57.876Z,5.60
2018-12-19T16:05:26.005Z,5.60
2018-12-19T16:07:54.227Z,5.60
2018-12-19T16:10:22.316Z,5.60
2018-12-19T16:12:50.460Z,5.50
2018-12-19T16:15:18.530Z,5.40
2018-12-19T16:17:46.761Z,5.40
2018-12-19T16:20:14.813Z,5.30
2018-12-19T16:22:43.005Z,5.30
2018-12-19T16:25:11.061Z,5.30
2018-12-19T16:27:39.231Z,5.20
2018-12-19T16:30:08.624Z,5.20
2018-12-19T16:32:36.753Z,5.20
2018-12-19T16:35:05.672Z,5.20
2018-12-19T16:37:33.800Z,5.20
2018-12-19T16:40:01.879Z,5.10
2018-12-19T16:42:29.939Z,5.10
2018-12-19T16:44:58.011Z,5.10
2018-12-19T16:47:26.201Z,5.00
2018-12-19T16:49:54.335Z,5.00
2018-12-19T16:52:22.392Z,5.00
2018-12-19T16:54:50.495Z,4.90
2018-12-19T16:57:18.592Z,4.90
2018-12-19T16:59:46.805Z,4.90
2018-12-19T17:02:15.015Z,5.00
2018-12-19T17:04:43.104Z,4.90
2018-12-19T17:07:11.234Z,5.00
2018-12-19T17:09:39.381Z,5.00
2018-12-19T17:12:07.517Z,5.00
2018-12-19T17:14:35.641Z,5.00
2018-12-19T17:17:03.788Z,5.10
2018-12-19T17:19:31.964Z,5.00
2018-12-19T17:22:00.076Z,5.10
2018-12-19T17:24:33.733Z,5.10
2018-12-19T17:27:01.841Z,5.00
2018-12-19T17:29:29.968Z,5.00
2018-12-19T17:31:58.563Z,5.10
2018-12-19T17:34:26.645Z,5.10
2018-12-19T17:36:54.749Z,5.10
2018-12-19T17:39:22.948Z,5.10
2018-12-19T17:41:51.152Z,5.10
2018-12-19T17:44:19.209Z,5.10
2018-12-19T17:46:47.412Z,5.10
2018-12-19T17:49:16.160Z,5.10
2018-12-19T17:51:44.292Z,5.10
2018-12-19T17:54:12.399Z,5.00
2018-12-19T17:56:40.577Z,5.10
2018-12-19T17:59:08.721Z,5.10
2018-12-19T18:01:36.920Z,5.10
2018-12-19T18:04:05.055Z,5.10
2018-12-19T18:06:33.252Z,5.00
2018-12-19T18:09:01.435Z,5.00
2018-12-19T18:11:29.583Z,5.00
2018-12-19T18:13:58.062Z,5.00
2018-12-19T18:16:26.120Z,5.00
2018-12-19T18:18:54.250Z,5.00
2018-12-19T18:21:22.436Z,5.00
2018-12-19T18:23:51.324Z,4.90
2018-12-19T18:26:19.928Z,4.90
2018-12-19T18:28:47.999Z,4.90
2018-12-19T18:31:16.148Z,4.90
2018-12-19T18:33:44.235Z,4.90
2018-12-19T18:36:12.308Z,4.90
2018-12-19T18:38:40.360Z,4.80
2018-12-19T18:41:08.509Z,4.80
2018-12-19T18:43:36.631Z,4.80
2018-12-19T18:46:04.800Z,4.80
2018-12-19T18:48:33.388Z,4.80
2018-12-19T18:51:01.531Z,4.80
2018-12-19T18:53:29.609Z,4.80
2018-12-19T18:55:57.906Z,4.70
2018-12-19T18:58:26.092Z,4.70
2018-12-19T19:00:54.370Z,4.70
2018-12-19T19:03:22.621Z,4.70
2018-12-19T19:05:50.835Z,4.70
2018-12-19T19:08:19.024Z,4.70
2018-12-19T19:10:47.157Z,4.70
2018-12-19T19:13:19.737Z,4.70
2018-12-19T19:15:45.472Z,4.80
2018-12-19T19:18:13.586Z,4.80
2018-12-19T19:20:41.740Z,4.80
2018-12-19T19:23:10.002Z,4.80
2018-12-19T19:25:38.125Z,4.80
2018-12-19T19:28:06.238Z,4.80
2018-12-19T19:30:34.375Z,4.80
2018-12-19T19:33:02.563Z,4.80
2018-12-19T19:35:30.765Z,4.90
2018-12-19T19:37:59.728Z,4.90
2018-12-19T19:40:27.848Z,4.90
2018-12-19T19:42:55.967Z,4.90
2018-12-19T19:45:24.139Z,4.90
2018-12-19T19:47:52.180Z,4.90
2018-12-19T19:50:20.268Z,4.90
2018-12-19T19:52:48.453Z,4.90
2018-12-19T19:55:16.688Z,4.90
2018-12-19T19:57:44.788Z,4.90
2018-12-19T20:00:13.017Z,5.00
2018-12-19T20:02:41.091Z,5.00
2018-12-19T20:05:09.225Z,5.10
2018-12-19T20:07:37.426Z,5.10
2018-12-19T20:10:06.278Z,5.10
2018-12-19T20:12:35.129Z,5.20
2018-12-19T20:15:03.320Z,5.20
2018-12-19T20:17:31.408Z,5.20
2018-12-19T20:19:59.555Z,5.20
2018-12-19T20:22:27.765Z,5.30
2018-12-19T20:24:56.170Z,5.30
2018-12-19T20:27:24.396Z,5.40
2018-12-19T20:29:52.501Z,5.40
2018-12-19T20:32:20.589Z,5.40
2018-12-19T20:34:48.717Z,5.40
2018-12-19T20:37:16.936Z,5.50
2018-12-19T20:39:45.572Z,5.50
2018-12-19T20:42:13.899Z,5.60
2018-12-19T20:44:41.995Z,5.50
2018-12-19T20:47:10.112Z,5.60
2018-12-19T20:49:38.269Z,5.60
2018-12-19T20:52:06.445Z,5.60
2018-12-19T20:54:34.493Z,5.60
2018-12-19T20:57:02.589Z,5.60
2018-12-19T20:59:30.673Z,5.60
2018-12-19T21:01:59.094Z,5.70
2018-12-19T21:04:27.172Z,5.70
2018-12-19T21:06:55.230Z,5.70
2018-12-19T21:09:23.463Z,5.70
2018-12-19T21:11:51.596Z,5.70
2018-12-19T21:14:19.844Z,5.80
2018-12-19T21:16:53.607Z,5.80
2018-12-19T21:19:21.744Z,5.80
2018-12-19T21:21:49.858Z,5.80
2018-12-19T21:24:18.000Z,5.80
2018-12-19T21:26:46.052Z,5.80
2018-12-19T21:29:15.029Z,5.80
2018-12-19T21:31:43.236Z,5.90
2018-12-19T21:34:11.373Z,5.90
2018-12-19T21:36:39.568Z,6.00
2018-12-19T21:39:09.987Z,6.00
2018-12-19T21:41:38.286Z,6.00
2018-12-19T21:44:06.604Z,6.00
2018-12-19T21:46:34.806Z,6.00
2018-12-19T21:49:03.221Z,6.10
2018-12-19T21:51:31.396Z,6.10
2018-12-19T21:53:59.527Z,6.10
2018-12-19T21:56:27.629Z,6.10
2018-12-19T21:58:55.917Z,6.10
